sensor_id;sensor_type;location;lat;lon;timestamp;pressure;altitude;pressure_sealevel;temperature;humidity
7760;BME280;3924;48.830;9.262;2023-01-26T00:01:11;99208.81;;;0.92;87.19
7760;BME280;3924;48.830;9.262;2023-01-26T00:03:39;99202.00;;;0.96;87.07
7760;BME280;3924;48.830;9.262;2023-01-26T00:06:08;99198.91;;;0.99;87.26
7760;BME280;3924;48.830;9.262;2023-01-26T00:08:42;99194.84;;;0.96;87.08
7760;BME280;3924;48.830;9.262;2023-01-26T00:11:11;99191.53;;;0.94;87.13
7760;BME280;3924;48.830;9.262;2023-01-26T00:13:38;99194.84;;;0.96;87.39
7760;BME280;3924;48.830;9.262;2023-01-26T00:16:14;99188.22;;;0.99;87.26
7760;BME280;3924;48.830;9.262;2023-01-26T00:18:41;99186.16;;;1.01;87.12
7760;BME280;3924;48.830;9.262;2023-01-26T00:21:11;99177.94;;;1.02;87.40
7760;BME280;3924;48.830;9.262;2023-01-26T00:23:38;99180.22;;;0.99;87.16
7760;BME280;3924;48.830;9.262;2023-01-26T00:26:06;99173.50;;;0.90;87.31
7760;BME280;3924;48.830;9.262;2023-01-26T00:28:32;99166.56;;;0.82;87.37
7760;BME280;3924;48.830;9.262;2023-01-26T00:33:29;99155.91;;;0.75;87.38
7760;BME280;3924;48.830;9.262;2023-01-26T00:35:56;99158.00;;;0.73;87.52
7760;BME280;3924;48.830;9.262;2023-01-26T00:38:23;99156.34;;;0.72;87.50
7760;BME280;3924;48.830;9.262;2023-01-26T00:40:49;99147.31;;;0.73;87.63
7760;BME280;3924;48.830;9.262;2023-01-26T00:43:16;99142.78;;;0.74;87.21
7760;BME280;3924;48.830;9.262;2023-01-26T00:45:43;99135.47;;;0.69;87.24
7760;BME280;3924;48.830;9.262;2023-01-26T00:48:09;99142.44;;;0.70;87.35
7760;BME280;3924;48.830;9.262;2023-01-26T00:50:36;99136.69;;;0.67;87.48
7760;BME280;3924;48.830;9.262;2023-01-26T00:53:02;99137.34;;;0.62;87.23
7760;BME280;3924;48.830;9.262;2023-01-26T00:55:29;99127.69;;;0.61;87.52
7760;BME280;3924;48.830;9.262;2023-01-26T00:58:03;99134.69;;;0.62;87.30
7760;BME280;3924;48.830;9.262;2023-01-26T01:00:31;99137.50;;;0.67;87.61
7760;BME280;3924;48.830;9.262;2023-01-26T01:02:58;99132.16;;;0.67;87.55
7760;BME280;3924;48.830;9.262;2023-01-26T01:05:26;99126.41;;;0.70;87.46
7760;BME280;3924;48.830;9.262;2023-01-26T01:07:53;99130.28;;;0.74;87.45
7760;BME280;3924;48.830;9.262;2023-01-26T01:10:20;99137.06;;;0.77;87.39
7760;BME280;3924;48.830;9.262;2023-01-26T01:12:47;99132.53;;;0.77;87.54
7760;BME280;3924;48.830;9.262;2023-01-26T01:15:13;99130.44;;;0.79;87.83
7760;BME280;3924;48.830;9.262;2023-01-26T01:17:41;99136.56;;;0.87;87.74
7760;BME280;3924;48.830;9.262;2023-01-26T01:20:09;99129.59;;;0.86;87.74
7760;BME280;3924;48.830;9.262;2023-01-26T01:22:36;99133.31;;;0.85;87.44
7760;BME280;3924;48.830;9.262;2023-01-26T01:25:03;99138.47;;;0.79;87.38
7760;BME280;3924;48.830;9.262;2023-01-26T01:27:30;99139.09;;;0.75;87.56
7760;BME280;3924;48.830;9.262;2023-01-26T01:29:57;99133.56;;;0.76;87.85
7760;BME280;3924;48.830;9.262;2023-01-26T01:32:23;99127.78;;;0.79;87.85
7760;BME280;3924;48.830;9.262;2023-01-26T01:34:50;99119.56;;;0.81;88.15
7760;BME280;3924;48.830;9.262;2023-01-26T01:37:16;99127.16;;;0.84;87.78
7760;BME280;3924;48.830;9.262;2023-01-26T01:39:43;99127.16;;;0.84;87.68
7760;BME280;3924;48.830;9.262;2023-01-26T01:42:09;99122.22;;;0.81;87.70
7760;BME280;3924;48.830;9.262;2023-01-26T01:44:37;99116.69;;;0.82;87.85
7760;BME280;3924;48.830;9.262;2023-01-26T01:47:09;99105.41;;;0.80;87.57
7760;BME280;3924;48.830;9.262;2023-01-26T01:49:44;99114.88;;;0.76;87.61
7760;BME280;3924;48.830;9.262;2023-01-26T01:52:15;99108.97;;;0.68;87.63
7760;BME280;3924;48.830;9.262;2023-01-26T01:54:46;99105.94;;;0.64;88.05
7760;BME280;3924;48.830;9.262;2023-01-26T01:57:24;99112.50;;;0.62;87.91
7760;BME280;3924;48.830;9.262;2023-01-26T01:59:57;99106.78;;;0.58;87.82
7760;BME280;3924;48.830;9.262;2023-01-26T02:02:25;99107.81;;;0.57;87.92
7760;BME280;3924;48.830;9.262;2023-01-26T02:04:53;99110.50;;;0.57;87.94
7760;BME280;3924;48.830;9.262;2023-01-26T02:07:22;99105.16;;;0.57;88.19
7760;BME280;3924;48.830;9.262;2023-01-26T02:09:49;99102.25;;;0.59;87.90
7760;BME280;3924;48.830;9.262;2023-01-26T02:12:34;99100.00;;;0.62;88.12
7760;BME280;3924;48.830;9.262;2023-01-26T02:15:02;99100.59;;;0.64;87.88
7760;BME280;3924;48.830;9.262;2023-01-26T02:17:29;99098.97;;;0.63;87.82
7760;BME280;3924;48.830;9.262;2023-01-26T02:20:10;99087.06;;;0.59;87.77
7760;BME280;3924;48.830;9.262;2023-01-26T02:28:15;99090.56;;;0.60;87.94
7760;BME280;3924;48.830;9.262;2023-01-26T02:30:42;99088.09;;;0.58;88.02
7760;BME280;3924;48.830;9.262;2023-01-26T02:33:24;99089.16;;;0.57;87.88
7760;BME280;3924;48.830;9.262;2023-01-26T02:35:51;99080.34;;;0.57;88.13
7760;BME280;3924;48.830;9.262;2023-01-26T02:38:19;99082.38;;;0.54;88.17
7760;BME280;3924;48.830;9.262;2023-01-26T02:40:57;99078.50;;;0.50;88.14
7760;BME280;3924;48.830;9.262;2023-01-26T02:43:26;99079.34;;;0.51;88.22
7760;BME280;3924;48.830;9.262;2023-01-26T02:45:53;99074.41;;;0.48;87.94
7760;BME280;3924;48.830;9.262;2023-01-26T02:48:20;99065.81;;;0.46;87.99
7760;BME280;3924;48.830;9.262;2023-01-26T02:51:13;99067.44;;;0.47;88.12
7760;BME280;3924;48.830;9.262;2023-01-26T02:53:40;99064.19;;;0.45;88.09
7760;BME280;3924;48.830;9.262;2023-01-26T02:56:06;99063.75;;;0.48;87.96
7760;BME280;3924;48.830;9.262;2023-01-26T02:58:33;99056.78;;;0.47;87.93
7760;BME280;3924;48.830;9.262;2023-01-26T03:00:59;99060.69;;;0.44;88.07
7760;BME280;3924;48.830;9.262;2023-01-26T03:03:26;99062.97;;;0.41;88.07
7760;BME280;3924;48.830;9.262;2023-01-26T03:06:08;99057.63;;;0.41;88.36
7760;BME280;3924;48.830;9.262;2023-01-26T03:08:36;99060.28;;;0.41;88.40
7760;BME280;3924;48.830;9.262;2023-01-26T03:11:04;99052.97;;;0.36;88.31
7760;BME280;3924;48.830;9.262;2023-01-26T03:13:31;99058.50;;;0.35;88.33
7760;BME280;3924;48.830;9.262;2023-01-26T03:15:57;99048.25;;;0.32;88.25
7760;BME280;3924;48.830;9.262;2023-01-26T03:18:28;99051.16;;;0.30;88.33
7760;BME280;3924;48.830;9.262;2023-01-26T03:21:15;99037.22;;;0.28;88.21
7760;BME280;3924;48.830;9.262;2023-01-26T03:24:00;99037.59;;;0.32;88.40
7760;BME280;3924;48.830;9.262;2023-01-26T03:26:46;99033.06;;;0.32;88.43
7760;BME280;3924;48.830;9.262;2023-01-26T03:29:31;99034.94;;;0.32;88.40
7760;BME280;3924;48.830;9.262;2023-01-26T03:31:58;99032.25;;;0.32;88.40
7760;BME280;3924;48.830;9.262;2023-01-26T03:34:25;99037.81;;;0.30;88.40
7760;BME280;3924;48.830;9.262;2023-01-26T03:36:51;99036.81;;;0.24;88.45
7760;BME280;3924;48.830;9.262;2023-01-26T03:39:18;99023.94;;;0.21;88.48
7760;BME280;3924;48.830;9.262;2023-01-26T03:42:03;99022.25;;;0.20;88.34
7760;BME280;3924;48.830;9.262;2023-01-26T03:44:49;99027.59;;;0.20;88.24
7760;BME280;3924;48.830;9.262;2023-01-26T03:47:35;99028.22;;;0.22;88.57
7760;BME280;3924;48.830;9.262;2023-01-26T03:50:21;99032.75;;;0.22;88.52
7760;BME280;3924;48.830;9.262;2023-01-26T03:53:24;99028.22;;;0.22;88.47
7760;BME280;3924;48.830;9.262;2023-01-26T03:56:10;99018.16;;;0.24;88.46
7760;BME280;3924;48.830;9.262;2023-01-26T03:58:52;99030.44;;;0.25;88.25
7760;BME280;3924;48.830;9.262;2023-01-26T04:01:23;99035.19;;;0.23;88.44
7760;BME280;3924;48.830;9.262;2023-01-26T04:03:56;99033.94;;;0.26;88.53
7760;BME280;3924;48.830;9.262;2023-01-26T04:06:43;99036.81;;;0.24;88.42
7760;BME280;3924;48.830;9.262;2023-01-26T04:09:29;99031.88;;;0.28;88.51
7760;BME280;3924;48.830;9.262;2023-01-26T04:11:56;99035.75;;;0.32;88.57
7760;BME280;3924;48.830;9.262;2023-01-26T04:14:22;99029.19;;;0.35;88.60
7760;BME280;3924;48.830;9.262;2023-01-26T04:17:16;99027.34;;;0.35;88.44
7760;BME280;3924;48.830;9.262;2023-01-26T04:20:01;99027.34;;;0.35;88.62
7760;BME280;3924;48.830;9.262;2023-01-26T04:22:46;99026.50;;;0.35;88.62
7760;BME280;3924;48.830;9.262;2023-01-26T04:25:15;99023.66;;;0.30;88.49
7760;BME280;3924;48.830;9.262;2023-01-26T04:27:42;99034.75;;;0.26;88.41
7760;BME280;3924;48.830;9.262;2023-01-26T04:30:10;99030.25;;;0.20;88.45
7760;BME280;3924;48.830;9.262;2023-01-26T04:32:38;99032.34;;;0.18;88.85
7760;BME280;3924;48.830;9.262;2023-01-26T04:35:06;99027.22;;;0.17;88.73
7760;BME280;3924;48.830;9.262;2023-01-26T04:37:32;99028.25;;;0.16;89.03
7760;BME280;3924;48.830;9.262;2023-01-26T04:39:59;99015.56;;;0.11;88.71
7760;BME280;3924;48.830;9.262;2023-01-26T04:42:25;99015.59;;;0.05;88.91
7760;BME280;3924;48.830;9.262;2023-01-26T04:44:52;99025.44;;;0.04;88.85
7760;BME280;3924;48.830;9.262;2023-01-26T04:47:19;99011.31;;;0.04;89.06
7760;BME280;3924;48.830;9.262;2023-01-26T04:49:46;99020.56;;;0.01;88.94
7760;BME280;3924;48.830;9.262;2023-01-26T04:52:13;99019.53;;;-0.05;88.87
7760;BME280;3924;48.830;9.262;2023-01-26T04:54:40;99010.75;;;-0.05;88.91
7760;BME280;3924;48.830;9.262;2023-01-26T04:57:07;99010.75;;;-0.05;88.90
7760;BME280;3924;48.830;9.262;2023-01-26T04:59:33;98999.25;;;-0.06;88.98
7760;BME280;3924;48.830;9.262;2023-01-26T05:02:00;99012.75;;;-0.01;89.09
7760;BME280;3924;48.830;9.262;2023-01-26T05:04:26;99009.88;;;0.01;88.83
7760;BME280;3924;48.830;9.262;2023-01-26T05:06:53;99000.88;;;0.02;88.68
7760;BME280;3924;48.830;9.262;2023-01-26T05:09:19;99008.84;;;0.02;88.74
7760;BME280;3924;48.830;9.262;2023-01-26T05:11:46;99013.16;;;0.03;88.98
7760;BME280;3924;48.830;9.262;2023-01-26T05:14:12;99009.88;;;0.01;89.00
7760;BME280;3924;48.830;9.262;2023-01-26T05:16:40;99019.72;;;0.01;89.01
7760;BME280;3924;48.830;9.262;2023-01-26T05:19:06;99010.31;;;-0.02;88.96
7760;BME280;3924;48.830;9.262;2023-01-26T05:21:33;99012.97;;;-0.02;89.12
7760;BME280;3924;48.830;9.262;2023-01-26T05:23:59;99007.81;;;0.03;89.16
7760;BME280;3924;48.830;9.262;2023-01-26T05:26:26;99006.97;;;0.09;89.00
7760;BME280;3924;48.830;9.262;2023-01-26T05:28:52;99006.53;;;0.12;89.02
7760;BME280;3924;48.830;9.262;2023-01-26T05:31:19;99005.50;;;0.13;89.12
7760;BME280;3924;48.830;9.262;2023-01-26T05:33:45;99011.22;;;0.17;88.78
7760;BME280;3924;48.830;9.262;2023-01-26T05:36:12;99009.63;;;0.09;89.04
7760;BME280;3924;48.830;9.262;2023-01-26T05:38:38;99008.59;;;0.10;88.80
7760;BME280;3924;48.830;9.262;2023-01-26T05:41:05;99013.94;;;0.10;89.10
7760;BME280;3924;48.830;9.262;2023-01-26T05:43:32;99017.03;;;0.07;88.98
7760;BME280;3924;48.830;9.262;2023-01-26T05:45:58;99018.03;;;0.06;89.12
7760;BME280;3924;48.830;9.262;2023-01-26T05:48:24;99023.41;;;-0.01;89.17
7760;BME280;3924;48.830;9.262;2023-01-26T05:50:54;99020.19;;;-0.09;88.92
7760;BME280;3924;48.830;9.262;2023-01-26T05:53:20;99024.31;;;-0.13;89.17
7760;BME280;3924;48.830;9.262;2023-01-26T05:55:47;99017.31;;;-0.14;89.15
7760;BME280;3924;48.830;9.262;2023-01-26T05:58:13;99025.53;;;-0.16;89.29
7760;BME280;3924;48.830;9.262;2023-01-26T06:00:40;99018.78;;;-0.18;89.09
7760;BME280;3924;48.830;9.262;2023-01-26T06:03:07;99026.78;;;-0.18;89.36
7760;BME280;3924;48.830;9.262;2023-01-26T06:05:33;99026.34;;;-0.15;89.62
7760;BME280;3924;48.830;9.262;2023-01-26T06:07:59;99022.25;;;-0.11;89.43
7760;BME280;3924;48.830;9.262;2023-01-26T06:10:26;99023.84;;;-0.04;89.28
7760;BME280;3924;48.830;9.262;2023-01-26T06:12:52;99020.75;;;-0.01;89.33
7760;BME280;3924;48.830;9.262;2023-01-26T06:15:19;99021.19;;;-0.04;88.95
7760;BME280;3924;48.830;9.262;2023-01-26T06:17:45;99027.13;;;-0.08;89.30
7760;BME280;3924;48.830;9.262;2023-01-26T06:20:12;99024.91;;;-0.11;88.95
7760;BME280;3924;48.830;9.262;2023-01-26T06:22:39;99034.13;;;-0.14;89.28
7760;BME280;3924;48.830;9.262;2023-01-26T06:25:06;99026.56;;;-0.17;89.33
7760;BME280;3924;48.830;9.262;2023-01-26T06:27:33;99030.03;;;-0.16;89.49
7760;BME280;3924;48.830;9.262;2023-01-26T06:30:01;99029.22;;;-0.17;89.51
7760;BME280;3924;48.830;9.262;2023-01-26T06:32:28;99034.97;;;-0.13;89.56
7760;BME280;3924;48.830;9.262;2023-01-26T06:34:55;99032.91;;;-0.11;89.57
7760;BME280;3924;48.830;9.262;2023-01-26T06:37:21;99033.13;;;-0.13;89.31
7760;BME280;3924;48.830;9.262;2023-01-26T06:39:48;99032.09;;;-0.18;89.20
7760;BME280;3924;48.830;9.262;2023-01-26T06:42:14;99035.19;;;-0.21;89.22
7760;BME280;3924;48.830;9.262;2023-01-26T06:44:41;99036.66;;;-0.25;89.53
7760;BME280;3924;48.830;9.262;2023-01-26T06:47:07;99024.97;;;-0.24;89.40
7760;BME280;3924;48.830;9.262;2023-01-26T06:49:34;99030.88;;;-0.22;89.64
7760;BME280;3924;48.830;9.262;2023-01-26T06:52:20;99030.88;;;-0.22;89.56
7760;BME280;3924;48.830;9.262;2023-01-26T06:54:48;99019.00;;;-0.20;89.50
7760;BME280;3924;48.830;9.262;2023-01-26T06:57:15;99021.44;;;-0.18;89.54
7760;BME280;3924;48.830;9.262;2023-01-26T06:59:42;99025.31;;;-0.14;89.63
7760;BME280;3924;48.830;9.262;2023-01-26T07:02:16;99023.31;;;-0.19;89.49
7760;BME280;3924;48.830;9.262;2023-01-26T07:04:43;99028.41;;;-0.17;89.44
7760;BME280;3924;48.830;9.262;2023-01-26T07:07:10;99032.94;;;-0.18;89.45
7760;BME280;3924;48.830;9.262;2023-01-26T07:09:36;99034.19;;;-0.20;89.35
7760;BME280;3924;48.830;9.262;2023-01-26T07:12:03;99038.06;;;-0.23;89.48
7760;BME280;3924;48.830;9.262;2023-01-26T07:14:33;99032.34;;;-0.26;89.45
7760;BME280;3924;48.830;9.262;2023-01-26T07:17:00;99031.31;;;-0.25;89.58
7760;BME280;3924;48.830;9.262;2023-01-26T07:19:27;99038.06;;;-0.23;89.64
7760;BME280;3924;48.830;9.262;2023-01-26T07:21:55;99038.88;;;-0.22;89.64
7760;BME280;3924;48.830;9.262;2023-01-26T07:24:22;99049.31;;;-0.21;89.71
7760;BME280;3924;48.830;9.262;2023-01-26T07:26:49;99043.16;;;-0.21;89.63
7760;BME280;3924;48.830;9.262;2023-01-26T07:29:16;99046.88;;;-0.22;89.35
7760;BME280;3924;48.830;9.262;2023-01-26T07:31:42;99041.97;;;-0.25;89.52
7760;BME280;3924;48.830;9.262;2023-01-26T07:34:10;99043.59;;;-0.24;89.45
7760;BME280;3924;48.830;9.262;2023-01-26T07:36:37;99045.22;;;-0.23;89.42
7760;BME280;3924;48.830;9.262;2023-01-26T07:39:04;99043.59;;;-0.24;89.53
7760;BME280;3924;48.830;9.262;2023-01-26T07:41:33;99049.34;;;-0.28;89.56
7760;BME280;3924;48.830;9.262;2023-01-26T07:44:00;99044.63;;;-0.25;89.63
7760;BME280;3924;48.830;9.262;2023-01-26T07:46:27;99047.09;;;-0.24;89.51
7760;BME280;3924;48.830;9.262;2023-01-26T07:48:54;99051.78;;;-0.19;89.60
7760;BME280;3924;48.830;9.262;2023-01-26T07:51:20;99044.84;;;-0.20;89.60
7760;BME280;3924;48.830;9.262;2023-01-26T07:53:47;99045.03;;;-0.22;89.66
7760;BME280;3924;48.830;9.262;2023-01-26T07:56:16;99047.06;;;-0.17;89.77
7760;BME280;3924;48.830;9.262;2023-01-26T07:58:49;99040.09;;;-0.18;89.54
7760;BME280;3924;48.830;9.262;2023-01-26T08:01:16;99043.59;;;-0.18;89.73
7760;BME280;3924;48.830;9.262;2023-01-26T08:03:43;99039.88;;;-0.17;89.76
7760;BME280;3924;48.830;9.262;2023-01-26T08:06:12;99041.28;;;-0.14;89.81
7760;BME280;3924;48.830;9.262;2023-01-26T08:08:41;99041.28;;;-0.14;89.83
7760;BME280;3924;48.830;9.262;2023-01-26T08:11:08;99047.25;;;-0.12;89.90
7760;BME280;3924;48.830;9.262;2023-01-26T08:13:35;99049.47;;;-0.09;89.71
7760;BME280;3924;48.830;9.262;2023-01-26T08:16:10;99041.91;;;-0.06;89.56
7760;BME280;3924;48.830;9.262;2023-01-26T08:18:39;99042.72;;;-0.05;89.49
7760;BME280;3924;48.830;9.262;2023-01-26T08:21:07;99039.41;;;-0.07;89.66
7760;BME280;3924;48.830;9.262;2023-01-26T08:23:34;99039.41;;;-0.07;89.43
7760;BME280;3924;48.830;9.262;2023-01-26T08:26:02;99030.63;;;-0.08;89.61
7760;BME280;3924;48.830;9.262;2023-01-26T08:28:30;99045.38;;;-0.05;89.59
7760;BME280;3924;48.830;9.262;2023-01-26T08:31:06;99040.88;;;-0.05;89.68
7760;BME280;3924;48.830;9.262;2023-01-26T08:33:33;99035.91;;;-0.01;89.57
7760;BME280;3924;48.830;9.262;2023-01-26T08:36:04;99038.56;;;-0.01;89.68
7760;BME280;3924;48.830;9.262;2023-01-26T08:38:32;99031.63;;;-0.02;89.52
7760;BME280;3924;48.830;9.262;2023-01-26T08:40:59;99038.56;;;-0.01;89.34
7760;BME280;3924;48.830;9.262;2023-01-26T08:43:26;99034.06;;;-0.01;89.34
7760;BME280;3924;48.830;9.262;2023-01-26T08:45:53;99033.88;;;0.01;89.45
7760;BME280;3924;48.830;9.262;2023-01-26T08:48:20;99034.47;;;0.03;89.66
7760;BME280;3924;48.830;9.262;2023-01-26T08:50:47;99030.97;;;0.09;89.86
7760;BME280;3924;48.830;9.262;2023-01-26T08:53:13;99027.03;;;0.12;89.24
7760;BME280;3924;48.830;9.262;2023-01-26T08:55:40;99023.78;;;0.10;89.19
7760;BME280;3924;48.830;9.262;2023-01-26T08:58:06;99032.00;;;0.08;89.36
7760;BME280;3924;48.830;9.262;2023-01-26T09:00:35;99025.03;;;0.07;89.38
7760;BME280;3924;48.830;9.262;2023-01-26T09:03:04;99024.78;;;0.15;89.65
7760;BME280;3924;48.830;9.262;2023-01-26T09:05:33;99022.25;;;0.20;89.46
7760;BME280;3924;48.830;9.262;2023-01-26T09:08:00;99022.44;;;0.25;89.35
7760;BME280;3924;48.830;9.262;2023-01-26T09:10:27;99026.56;;;0.28;89.52
7760;BME280;3924;48.830;9.262;2023-01-26T09:12:53;99021.59;;;0.32;89.30
7760;BME280;3924;48.830;9.262;2023-01-26T09:15:20;99021.22;;;0.28;89.22
7760;BME280;3924;48.830;9.262;2023-01-26T09:17:47;99021.41;;;0.26;89.14
7760;BME280;3924;48.830;9.262;2023-01-26T09:20:15;99024.94;;;0.20;89.15
7760;BME280;3924;48.830;9.262;2023-01-26T09:22:41;99031.16;;;0.14;89.06
7760;BME280;3924;48.830;9.262;2023-01-26T09:25:09;99027.03;;;0.12;89.44
7760;BME280;3924;48.830;9.262;2023-01-26T09:27:36;99028.88;;;0.11;89.28
7760;BME280;3924;48.830;9.262;2023-01-26T09:30:04;99034.00;;;0.13;88.99
7760;BME280;3924;48.830;9.262;2023-01-26T09:32:32;99034.66;;;0.08;89.11
7760;BME280;3924;48.830;9.262;2023-01-26T09:34:59;99036.69;;;0.06;89.25
7760;BME280;3924;48.830;9.262;2023-01-26T09:37:26;99035.50;;;0.02;89.14
7760;BME280;3924;48.830;9.262;2023-01-26T09:39:56;99040.25;;;0.00;89.18
7760;BME280;3924;48.830;9.262;2023-01-26T09:42:43;99042.28;;;-0.02;89.32
7760;BME280;3924;48.830;9.262;2023-01-26T09:45:41;99042.06;;;-0.01;89.25
7760;BME280;3924;48.830;9.262;2023-01-26T09:51:32;99045.69;;;0.12;89.09
7760;BME280;3924;48.830;9.262;2023-01-26T09:56:54;99040.16;;;0.13;89.01
7760;BME280;3924;48.830;9.262;2023-01-26T09:59:35;99043.84;;;0.12;89.01
7760;BME280;3924;48.830;9.262;2023-01-26T10:04:45;99038.53;;;0.06;89.10
7760;BME280;3924;48.830;9.262;2023-01-26T10:07:14;99029.34;;;0.02;89.17
7760;BME280;3924;48.830;9.262;2023-01-26T10:09:52;99034.25;;;0.05;89.14
7760;BME280;3924;48.830;9.262;2023-01-26T10:12:26;99034.03;;;0.06;89.07
7760;BME280;3924;48.830;9.262;2023-01-26T10:17:31;99034.47;;;0.03;88.95
7760;BME280;3924;48.830;9.262;2023-01-26T10:20:16;99027.50;;;0.02;89.04
7760;BME280;3924;48.830;9.262;2023-01-26T10:22:51;99031.22;;;0.01;89.11
7760;BME280;3924;48.830;9.262;2023-01-26T10:25:25;99031.22;;;0.01;89.05
7760;BME280;3924;48.830;9.262;2023-01-26T10:27:53;99025.25;;;-0.01;88.98
7760;BME280;3924;48.830;9.262;2023-01-26T10:30:20;99033.69;;;-0.04;88.96
7760;BME280;3924;48.830;9.262;2023-01-26T10:32:50;99030.84;;;-0.09;89.04
7760;BME280;3924;48.830;9.262;2023-01-26T10:35:19;99029.63;;;-0.13;89.08
7760;BME280;3924;48.830;9.262;2023-01-26T10:37:46;99038.59;;;-0.08;89.18
7760;BME280;3924;48.830;9.262;2023-01-26T10:40:13;99046.41;;;-0.06;89.03
7760;BME280;3924;48.830;9.262;2023-01-26T10:42:40;99033.09;;;-0.06;88.90
7760;BME280;3924;48.830;9.262;2023-01-26T10:45:28;99030.00;;;-0.03;89.20
7760;BME280;3924;48.830;9.262;2023-01-26T10:48:15;99039.81;;;0.03;89.24
7760;BME280;3924;48.830;9.262;2023-01-26T10:50:43;99028.09;;;0.04;89.08
7760;BME280;3924;48.830;9.262;2023-01-26T10:53:16;99030.38;;;0.07;89.09
7760;BME280;3924;48.830;9.262;2023-01-26T10:56:03;99022.19;;;0.02;88.54
7760;BME280;3924;48.830;9.262;2023-01-26T10:58:53;99027.91;;;-0.01;88.89
7760;BME280;3924;48.830;9.262;2023-01-26T11:01:20;99031.84;;;-0.04;88.94
7760;BME280;3924;48.830;9.262;2023-01-26T11:04:05;99036.16;;;-0.09;88.96
7760;BME280;3924;48.830;9.262;2023-01-26T11:06:32;99028.59;;;-0.12;88.93
7760;BME280;3924;48.830;9.262;2023-01-26T11:09:14;99021.00;;;-0.09;89.07
7760;BME280;3924;48.830;9.262;2023-01-26T11:11:54;99025.50;;;-0.09;89.11
7760;BME280;3924;48.830;9.262;2023-01-26T11:14:20;99024.28;;;-0.07;89.10
7760;BME280;3924;48.830;9.262;2023-01-26T11:17:00;99015.63;;;-0.02;88.85
7760;BME280;3924;48.830;9.262;2023-01-26T11:22:10;99009.03;;;0.07;88.80
7760;BME280;3924;48.830;9.262;2023-01-26T11:24:48;99010.72;;;0.02;88.50
7760;BME280;3924;48.830;9.262;2023-01-26T11:30:05;99003.72;;;0.07;89.04
7760;BME280;3924;48.830;9.262;2023-01-26T11:33:00;99001.19;;;0.12;88.38
7760;BME280;3924;48.830;9.262;2023-01-26T11:35:45;98995.09;;;0.05;88.48
7760;BME280;3924;48.830;9.262;2023-01-26T11:38:37;99001.91;;;0.01;88.44
7760;BME280;3924;48.830;9.262;2023-01-26T11:46:20;98989.34;;;0.08;88.84
7760;BME280;3924;48.830;9.262;2023-01-26T11:49:02;98997.53;;;0.07;88.59
7760;BME280;3924;48.830;9.262;2023-01-26T11:56:42;98986.09;;;-0.01;88.69
7760;BME280;3924;48.830;9.262;2023-01-26T11:59:20;98976.19;;;0.13;88.84
7760;BME280;3924;48.830;9.262;2023-01-26T12:04:56;98977.66;;;0.09;88.36
7760;BME280;3924;48.830;9.262;2023-01-26T12:07:29;98975.63;;;0.05;88.22
7760;BME280;3924;48.830;9.262;2023-01-26T12:09:59;98967.22;;;0.08;88.42
7760;BME280;3924;48.830;9.262;2023-01-26T12:12:42;98967.59;;;0.11;88.76
7760;BME280;3924;48.830;9.262;2023-01-26T12:15:16;98963.06;;;0.12;88.52
7760;BME280;3924;48.830;9.262;2023-01-26T12:18:44;98962.69;;;0.08;88.22
7760;BME280;3924;48.830;9.262;2023-01-26T12:21:17;98959.88;;;-0.04;88.37
7760;BME280;3924;48.830;9.262;2023-01-26T12:23:58;98961.56;;;-0.09;88.54
7760;BME280;3924;48.830;9.262;2023-01-26T12:26:42;98953.97;;;-0.06;88.50
7760;BME280;3924;48.830;9.262;2023-01-26T12:29:12;98948.22;;;-0.09;88.41
7760;BME280;3924;48.830;9.262;2023-01-26T12:31:58;98945.38;;;-0.14;88.39
7760;BME280;3924;48.830;9.262;2023-01-26T12:34:28;98943.75;;;-0.15;88.71
7760;BME280;3924;48.830;9.262;2023-01-26T12:39:43;98940.69;;;-0.12;88.53
7760;BME280;3924;48.830;9.262;2023-01-26T12:45:08;98935.34;;;-0.12;88.50
7760;BME280;3924;48.830;9.262;2023-01-26T12:47:49;98926.72;;;-0.14;88.47
7760;BME280;3924;48.830;9.262;2023-01-26T12:50:39;98930.03;;;-0.12;88.54
7760;BME280;3924;48.830;9.262;2023-01-26T12:53:15;98917.69;;;-0.07;88.55
7760;BME280;3924;48.830;9.262;2023-01-26T12:55:55;98921.19;;;-0.06;88.51
7760;BME280;3924;48.830;9.262;2023-01-26T12:58:27;98929.59;;;-0.09;88.28
7760;BME280;3924;48.830;9.262;2023-01-26T13:01:07;98935.31;;;-0.06;88.37
7760;BME280;3924;48.830;9.262;2023-01-26T13:06:17;98923.44;;;-0.10;88.40
7760;BME280;3924;48.830;9.262;2023-01-26T13:08:50;98917.47;;;-0.05;88.43
7760;BME280;3924;48.830;9.262;2023-01-26T13:24:46;98906.38;;;-0.02;88.26
7760;BME280;3924;48.830;9.262;2023-01-26T13:27:33;98902.53;;;-0.06;88.19
7760;BME280;3924;48.830;9.262;2023-01-26T13:30:00;98908.72;;;-0.12;88.15
7760;BME280;3924;48.830;9.262;2023-01-26T13:34:55;98901.53;;;-0.12;88.24
7760;BME280;3924;48.830;9.262;2023-01-26T13:37:31;98910.13;;;-0.10;88.37
7760;BME280;3924;48.830;9.262;2023-01-26T13:40:03;98902.53;;;-0.06;88.13
7760;BME280;3924;48.830;9.262;2023-01-26T13:42:36;98900.88;;;-0.07;88.14
7760;BME280;3924;48.830;9.262;2023-01-26T13:45:07;98908.88;;;-0.07;88.05
7760;BME280;3924;48.830;9.262;2023-01-26T13:47:45;98909.72;;;-0.07;88.11
7760;BME280;3924;48.830;9.262;2023-01-26T13:52:50;98915.22;;;-0.08;88.16
7760;BME280;3924;48.830;9.262;2023-01-26T13:55:23;98911.53;;;-0.07;88.18
7760;BME280;3924;48.830;9.262;2023-01-26T13:58:16;98905.78;;;-0.04;87.83
7760;BME280;3924;48.830;9.262;2023-01-26T14:01:04;98913.97;;;0.01;88.16
7760;BME280;3924;48.830;9.262;2023-01-26T14:03:31;98913.97;;;0.01;88.07
7760;BME280;3924;48.830;9.262;2023-01-26T14:06:02;98911.88;;;0.03;87.84
7760;BME280;3924;48.830;9.262;2023-01-26T14:08:31;98915.59;;;0.02;87.69
7760;BME280;3924;48.830;9.262;2023-01-26T14:10:59;98913.97;;;0.01;87.99
7760;BME280;3924;48.830;9.262;2023-01-26T14:13:32;98922.53;;;0.03;88.02
7760;BME280;3924;48.830;9.262;2023-01-26T14:16:02;98914.78;;;0.02;87.78
7760;BME280;3924;48.830;9.262;2023-01-26T14:18:33;98923.41;;;-0.03;87.66
7760;BME280;3924;48.830;9.262;2023-01-26T14:21:13;98916.25;;;-0.09;87.79
7760;BME280;3924;48.830;9.262;2023-01-26T14:23:41;98913.22;;;-0.13;87.84
7760;BME280;3924;48.830;9.262;2023-01-26T14:28:44;98923.03;;;-0.07;87.97
7760;BME280;3924;48.830;9.262;2023-01-26T14:31:15;98926.28;;;-0.05;87.91
7760;BME280;3924;48.830;9.262;2023-01-26T14:33:44;98923.84;;;-0.06;87.91
7760;BME280;3924;48.830;9.262;2023-01-26T14:36:18;98924.44;;;-0.04;88.13
7760;BME280;3924;48.830;9.262;2023-01-26T14:38:48;98927.47;;;-0.01;87.94
7760;BME280;3924;48.830;9.262;2023-01-26T14:41:19;98925.66;;;0.00;87.63
7760;BME280;3924;48.830;9.262;2023-01-26T14:43:49;98923.84;;;-0.06;87.69
7760;BME280;3924;48.830;9.262;2023-01-26T14:46:45;98931.22;;;-0.08;87.69
7760;BME280;3924;48.830;9.262;2023-01-26T14:49:23;98936.16;;;-0.12;87.74
7760;BME280;3924;48.830;9.262;2023-01-26T14:51:55;98939.44;;;-0.10;87.79
7760;BME280;3924;48.830;9.262;2023-01-26T14:54:30;98932.84;;;-0.07;87.74
7760;BME280;3924;48.830;9.262;2023-01-26T14:56:58;98938.16;;;-0.07;87.76